Time;durP1;ratioP1;P1;durP2;ratioP2;P2;SDS_P1;SDS_P2;PMS_P1;PMS_P2;Temp;Humidity;BMP_temperature;BMP_pressure;BME280_temperature;BME280_humidity;BME280_pressure;Samples;Min_cycle;Max_cycle;Signal;HPM_P1;HPM_P2
2023/06/19 00:02:22;;;;;;;5.20;4.70;;;24.20;73.10;;;;;;5024091;28;20028;-34
2023/06/19 00:04:48;;;;;;;5.13;4.72;;;24.10;73.30;;;;;;5022985;28;20655;-34
2023/06/19 00:07:14;;;;;;;5.40;4.90;;;24.10;73.50;;;;;;5024226;28;20457;-34
2023/06/19 00:09:45;;;;;;;5.32;4.85;;;24.10;73.60;;;;;;5023980;28;20108;-33
2023/06/19 00:12:11;;;;;;;5.20;4.70;;;24.10;73.70;;;;;;5023511;28;20056;-32
2023/06/19 00:14:36;;;;;;;6.13;4.68;;;24.10;73.80;;;;;;5024503;28;20021;-33
2023/06/19 00:17:02;;;;;;;5.13;4.72;;;24.10;73.90;;;;;;5025153;28;20013;-33
2023/06/19 00:19:28;;;;;;;5.60;5.10;;;24.10;74.00;;;;;;5022495;28;20671;-32
2023/06/19 00:21:57;;;;;;;5.35;4.85;;;24.10;74.10;;;;;;5024780;28;20453;-35
2023/06/19 00:24:23;;;;;;;4.88;4.38;;;24.10;74.40;;;;;;5023506;28;20030;-34
2023/06/19 00:26:48;;;;;;;4.82;4.43;;;24.10;74.40;;;;;;5024039;28;20037;-34
2023/06/19 00:29:14;;;;;;;4.80;4.40;;;24.10;74.50;;;;;;5024449;28;20048;-34
2023/06/19 00:31:39;;;;;;;4.63;4.22;;;24.10;74.60;;;;;;5023633;28;20132;-33
2023/06/19 00:34:05;;;;;;;5.05;4.53;;;24.00;74.80;;;;;;5023045;28;20121;-35
2023/06/19 00:36:40;;;;;;;5.30;4.80;;;24.00;75.00;;;;;;5023859;28;20101;-34
2023/06/19 00:39:07;;;;;;;5.50;4.65;;;24.00;75.70;;;;;;5023651;28;20033;-33
2023/06/19 00:41:37;;;;;;;5.40;4.75;;;23.90;76.10;;;;;;5024086;28;20097;-34
2023/06/19 00:44:03;;;;;;;4.97;4.57;;;23.90;76.50;;;;;;5024179;28;20568;-34
2023/06/19 00:46:29;;;;;;;4.60;4.20;;;23.90;76.90;;;;;;5023568;28;20064;-35
2023/06/19 00:48:54;;;;;;;5.60;4.57;;;23.90;77.00;;;;;;5024241;28;20076;-33
2023/06/19 00:51:21;;;;;;;5.65;5.05;;;23.90;77.20;;;;;;5023620;28;20025;-33
2023/06/19 00:53:47;;;;;;;5.30;4.80;;;23.90;78.20;;;;;;5023224;28;20057;-33
2023/06/19 00:56:12;;;;;;;6.20;4.60;;;23.80;77.90;;;;;;5024023;28;20040;-34
2023/06/19 00:58:41;;;;;;;5.65;4.70;;;23.80;77.90;;;;;;5023897;28;20027;-35
2023/06/19 01:01:06;;;;;;;5.00;4.60;;;23.80;77.90;;;;;;5023135;28;20051;-34
2023/06/19 01:03:32;;;;;;;7.25;4.50;;;23.80;78.30;;;;;;5023568;28;20556;-34
2023/06/19 01:06:02;;;;;;;6.70;4.65;;;23.70;78.40;;;;;;5023861;28;20122;-35
2023/06/19 01:08:58;;;;;;;7.10;4.78;;;23.70;78.30;;;;;;5023280;28;20041;-33
2023/06/19 01:11:37;;;;;;;4.82;4.43;;;23.70;78.30;;;;;;5023676;28;20029;-35
2023/06/19 01:14:09;;;;;;;5.47;4.75;;;23.70;78.50;;;;;;5024649;28;20029;-34
2023/06/19 01:16:35;;;;;;;5.40;4.32;;;23.70;78.40;;;;;;5025510;28;20071;-35
2023/06/19 01:19:01;;;;;;;4.60;4.13;;;23.60;78.40;;;;;;5028378;28;20025;-34
2023/06/19 01:21:26;;;;;;;4.47;4.07;;;23.70;78.40;;;;;;5026243;28;20432;-35
2023/06/19 01:23:52;;;;;;;5.80;5.28;;;23.60;78.50;;;;;;5028299;28;20662;-34
2023/06/19 01:26:21;;;;;;;6.45;5.05;;;23.60;78.70;;;;;;5027155;28;20013;-34
2023/06/19 01:28:47;;;;;;;5.88;4.95;;;23.60;78.80;;;;;;5026991;28;20033;-34
2023/06/19 01:31:20;;;;;;;5.40;4.82;;;23.60;78.80;;;;;;5027459;28;20030;-34
2023/06/19 01:33:47;;;;;;;5.78;4.90;;;23.50;79.00;;;;;;5028336;28;20096;-34
2023/06/19 01:36:17;;;;;;;5.10;4.47;;;23.50;79.20;;;;;;5026380;28;20057;-34
2023/06/19 01:38:45;;;;;;;5.55;4.53;;;23.50;79.30;;;;;;5027486;28;20428;-36
2023/06/19 01:41:11;;;;;;;4.13;3.75;;;23.30;79.30;;;;;;5026585;28;20014;-35
2023/06/19 01:43:38;;;;;;;4.82;4.15;;;23.30;79.40;;;;;;5026568;28;20022;-35
2023/06/19 01:46:04;;;;;;;4.80;4.22;;;23.20;79.50;;;;;;5028121;28;20025;-35
2023/06/19 01:48:30;;;;;;;4.45;4.05;;;23.20;79.80;;;;;;5027660;28;20029;-34
2023/06/19 01:50:56;;;;;;;6.13;4.55;;;23.10;79.80;;;;;;5026915;28;20021;-34
2023/06/19 01:53:21;;;;;;;4.68;4.28;;;23.10;79.90;;;;;;5026369;28;20049;-33
2023/06/19 01:55:47;;;;;;;5.35;4.35;;;23.00;80.30;;;;;;5027368;28;20183;-33
2023/06/19 01:58:12;;;;;;;6.18;3.72;;;23.00;80.50;;;;;;5026450;28;20029;-32
2023/06/19 02:00:41;;;;;;;4.18;3.78;;;22.90;81.30;;;;;;5026936;28;20034;-32
2023/06/19 02:03:09;;;;;;;4.20;3.85;;;22.90;81.00;;;;;;5027382;28;20017;-33
2023/06/19 02:05:39;;;;;;;4.10;3.70;;;22.80;81.40;;;;;;5026655;28;20025;-33
2023/06/19 02:08:05;;;;;;;3.95;3.60;;;22.80;81.50;;;;;;5026959;28;20346;-34
2023/06/19 02:10:30;;;;;;;4.47;4.07;;;22.70;81.60;;;;;;5026162;28;20029;-35
2023/06/19 02:12:57;;;;;;;4.32;3.92;;;22.70;82.00;;;;;;5026779;28;20044;-34
2023/06/19 02:15:23;;;;;;;4.45;3.85;;;22.60;82.00;;;;;;5026762;28;20034;-34
2023/06/19 02:17:49;;;;;;;4.70;3.97;;;22.60;82.40;;;;;;5025970;28;20070;-34
2023/06/19 02:20:15;;;;;;;4.97;4.45;;;22.50;82.80;;;;;;5026911;28;20026;-34
2023/06/19 02:22:43;;;;;;;4.53;3.92;;;22.50;83.10;;;;;;5026542;28;20222;-35
2023/06/19 02:25:18;;;;;;;3.85;3.55;;;22.50;83.30;;;;;;5026082;28;20041;-34
2023/06/19 02:27:44;;;;;;;3.97;3.60;;;22.40;83.40;;;;;;5026321;28;20034;-33
2023/06/19 02:30:10;;;;;;;4.95;4.05;;;22.30;83.60;;;;;;5026635;28;20040;-34
2023/06/19 02:32:36;;;;;;;4.10;3.70;;;22.30;83.70;;;;;;5025228;28;20445;-32
2023/06/19 02:35:06;;;;;;;3.90;3.60;;;22.20;83.80;;;;;;5026321;28;20037;-33
2023/06/19 02:37:35;;;;;;;;;;;22.20;84.00;;;;;;5027339;28;20053;-34
2023/06/19 02:40:03;;;;;;;4.57;3.88;;;22.10;84.10;;;;;;5017247;28;19985;-32
2023/06/19 02:42:28;;;;;;;3.88;3.45;;;22.10;84.30;;;;;;5025985;28;20493;-33
2023/06/19 02:44:54;;;;;;;4.43;4.03;;;22.00;84.60;;;;;;5026338;28;20461;-33
2023/06/19 02:47:19;;;;;;;4.53;4.13;;;21.90;85.00;;;;;;5025097;28;20069;-33
2023/06/19 02:49:45;;;;;;;3.47;3.17;;;21.90;85.40;;;;;;5024409;28;20037;-33
2023/06/19 02:52:21;;;;;;;5.32;3.80;;;21.90;85.50;;;;;;5025904;28;20025;-33
2023/06/19 02:54:46;;;;;;;3.40;2.88;;;21.80;86.50;;;;;;5024755;28;20504;-34
2023/06/19 02:57:12;;;;;;;3.88;3.42;;;21.80;86.20;;;;;;5026660;28;20103;-33
2023/06/19 02:59:37;;;;;;;3.50;3.20;;;21.70;86.50;;;;;;5025010;28;20033;-34
2023/06/19 03:02:09;;;;;;;3.53;3.22;;;21.70;86.60;;;;;;5025668;28;20047;-33
2023/06/19 03:04:36;;;;;;;4.13;3.72;;;21.60;87.10;;;;;;5025413;28;20028;-33
2023/06/19 03:07:02;;;;;;;3.70;3.35;;;21.60;87.10;;;;;;5025004;28;20116;-35
2023/06/19 03:09:28;;;;;;;3.75;3.35;;;21.60;87.00;;;;;;5024647;28;20030;-34
2023/06/19 03:11:54;;;;;;;3.95;3.28;;;21.60;87.80;;;;;;5025122;28;20187;-34
2023/06/19 03:14:20;;;;;;;2.80;2.60;;;21.70;88.00;;;;;;5024787;28;20131;-35
2023/06/19 03:16:47;;;;;;;3.63;3.28;;;21.70;87.80;;;;;;5025748;28;20025;-33
2023/06/19 03:19:12;;;;;;;2.90;2.42;;;21.70;88.30;;;;;;5025305;28;20560;-33
2023/06/19 03:21:38;;;;;;;2.78;2.30;;;21.60;88.80;;;;;;5024769;28;20021;-34
2023/06/19 03:24:04;;;;;;;2.60;2.40;;;21.60;89.20;;;;;;5025407;28;20038;-33
2023/06/19 03:26:30;;;;;;;2.58;2.38;;;21.50;89.70;;;;;;5025004;28;20927;-34
2023/06/19 03:28:55;;;;;;;2.28;2.08;;;21.50;90.10;;;;;;5024788;28;20045;-34
2023/06/19 03:31:21;;;;;;;2.70;2.50;;;21.50;90.20;;;;;;5024839;28;20108;-33
2023/06/19 03:33:49;;;;;;;2.38;2.15;;;21.50;90.20;;;;;;5025006;28;20104;-33
2023/06/19 03:36:15;;;;;;;2.47;2.28;;;21.50;90.40;;;;;;5023946;28;20022;-34
2023/06/19 03:38:43;;;;;;;2.35;2.05;;;21.50;90.30;;;;;;5024875;28;20384;-34
2023/06/19 03:41:15;;;;;;;2.60;2.40;;;21.50;90.30;;;;;;5022501;28;20030;-32
2023/06/19 03:43:41;;;;;;;2.53;2.33;;;21.60;90.30;;;;;;5024244;28;20052;-33
2023/06/19 03:46:12;;;;;;;2.60;2.40;;;21.60;90.20;;;;;;5024742;28;20445;-34
2023/06/19 03:48:38;;;;;;;2.90;1.90;;;21.60;90.40;;;;;;5004918;28;20026;-34
2023/06/19 03:51:09;;;;;;;2.88;2.00;;;21.70;90.40;;;;;;5018440;28;20087;-34
2023/06/19 03:53:38;;;;;;;2.70;2.20;;;21.70;90.40;;;;;;5024760;28;20056;-34
2023/06/19 03:56:04;;;;;;;2.47;2.00;;;21.70;90.40;;;;;;5023787;28;20041;-34
2023/06/19 03:58:29;;;;;;;3.33;2.15;;;21.70;90.40;;;;;;5024843;28;20032;-34
2023/06/19 04:00:55;;;;;;;2.00;1.90;;;21.80;90.60;;;;;;5025475;28;20029;-34
2023/06/19 04:03:26;;;;;;;3.50;2.08;;;21.80;90.50;;;;;;5023845;28;20068;-33
2023/06/19 04:05:52;;;;;;;2.17;1.97;;;21.80;90.50;;;;;;5024144;28;20055;-33
2023/06/19 04:08:17;;;;;;;2.97;1.80;;;21.80;90.50;;;;;;5024428;28;20361;-34
2023/06/19 04:10:46;;;;;;;1.98;1.88;;;21.90;90.50;;;;;;5024021;28;20630;-34
2023/06/19 04:13:12;;;;;;;1.98;1.80;;;21.90;90.50;;;;;;5024636;28;20080;-33
2023/06/19 04:15:43;;;;;;;3.03;1.90;;;21.90;90.60;;;;;;5023929;28;20837;-33
2023/06/19 04:18:09;;;;;;;2.20;2.00;;;21.90;90.50;;;;;;5023824;28;20888;-34
2023/06/19 04:20:35;;;;;;;4.53;2.08;;;21.90;90.60;;;;;;5024389;28;20033;-35
2023/06/19 04:23:03;;;;;;;2.47;2.28;;;21.90;90.70;;;;;;5020859;28;20427;-33
2023/06/19 04:25:29;;;;;;;3.35;2.60;;;21.80;91.20;;;;;;5024471;28;20025;-32
2023/06/19 04:27:54;;;;;;;2.65;2.33;;;21.80;91.30;;;;;;5024019;28;20035;-33
2023/06/19 04:30:23;;;;;;;2.50;2.20;;;21.80;91.30;;;;;;5023973;28;20121;-33
2023/06/19 04:32:48;;;;;;;3.25;2.33;;;21.80;91.40;;;;;;5023975;28;20030;-33
2023/06/19 04:35:14;;;;;;;2.67;2.20;;;21.80;91.40;;;;;;5024473;28;20029;-34
2023/06/19 04:37:39;;;;;;;3.03;2.67;;;21.70;91.50;;;;;;5023686;28;20030;-33
2023/06/19 04:40:08;;;;;;;2.30;2.10;;;21.70;91.60;;;;;;5023106;28;20033;-34
2023/06/19 04:42:34;;;;;;;3.60;2.13;;;21.80;91.70;;;;;;5023328;28;20113;-33
2023/06/19 04:44:59;;;;;;;2.70;2.45;;;21.70;91.80;;;;;;5024117;28;20108;-32
2023/06/19 04:47:25;;;;;;;2.28;2.08;;;21.70;91.90;;;;;;5022993;28;20029;-32
2023/06/19 04:49:51;;;;;;;2.30;2.10;;;21.70;91.90;;;;;;5023906;28;20485;-34
2023/06/19 04:52:18;;;;;;;4.00;2.13;;;21.80;91.90;;;;;;5026343;28;20018;-33
2023/06/19 04:54:44;;;;;;;3.20;2.33;;;21.80;92.30;;;;;;5028684;28;20052;-34
2023/06/19 04:57:10;;;;;;;4.25;2.60;;;21.80;91.90;;;;;;5027867;28;20068;-34
2023/06/19 04:59:36;;;;;;;4.63;2.78;;;21.80;92.20;;;;;;5027134;28;20570;-34
2023/06/19 05:02:02;;;;;;;4.80;2.88;;;21.80;92.10;;;;;;5027925;28;20036;-34
2023/06/19 05:04:29;;;;;;;4.65;2.80;;;21.80;92.60;;;;;;5027834;28;20029;-35
2023/06/19 05:06:55;;;;;;;4.93;3.22;;;21.70;92.60;;;;;;5027572;28;20671;-34
2023/06/19 05:09:21;;;;;;;6.25;3.05;;;21.70;93.00;;;;;;5027491;28;20029;-34
2023/06/19 05:11:46;;;;;;;6.95;2.63;;;21.60;93.10;;;;;;5028298;28;20040;-34
2023/06/19 05:14:14;;;;;;;3.80;2.75;;;21.60;93.20;;;;;;5027374;28;20036;-33
2023/06/19 05:16:40;;;;;;;3.63;3.03;;;21.60;93.50;;;;;;5027884;28;20033;-34
2023/06/19 05:19:06;;;;;;;3.40;2.50;;;21.50;93.70;;;;;;5027522;28;20179;-34
2023/06/19 05:21:32;;;;;;;2.60;2.40;;;21.50;93.70;;;;;;5027968;28;20037;-33
2023/06/19 05:23:57;;;;;;;2.80;2.60;;;21.50;93.70;;;;;;5028161;28;20021;-34
2023/06/19 05:26:23;;;;;;;4.32;2.72;;;21.50;93.90;;;;;;5027624;28;20402;-33
2023/06/19 05:28:49;;;;;;;2.55;2.25;;;21.50;94.00;;;;;;5027067;28;20042;-34
2023/06/19 05:31:15;;;;;;;3.35;2.63;;;21.50;94.00;;;;;;5027931;28;20025;-34
2023/06/19 05:33:41;;;;;;;2.72;2.13;;;21.50;94.00;;;;;;5027089;28;20358;-35
2023/06/19 05:36:07;;;;;;;3.95;2.60;;;21.50;94.00;;;;;;5026880;28;20028;-34
2023/06/19 05:38:33;;;;;;;3.10;2.58;;;21.60;94.10;;;;;;5027947;28;20030;-33
2023/06/19 05:40:59;;;;;;;2.95;2.30;;;21.60;94.10;;;;;;5027372;28;20037;-34
2023/06/19 05:43:28;;;;;;;3.30;2.05;;;21.60;94.10;;;;;;5026798;28;20052;-34
2023/06/19 05:45:55;;;;;;;4.05;2.35;;;21.70;94.20;;;;;;5027787;28;20044;-34
2023/06/19 05:48:21;;;;;;;2.67;2.45;;;21.70;94.20;;;;;;5027462;28;20041;-35
2023/06/19 05:50:47;;;;;;;3.22;2.92;;;21.80;94.20;;;;;;5027095;28;20025;-34
2023/06/19 05:53:12;;;;;;;3.08;2.50;;;21.80;94.30;;;;;;5026808;28;20041;-35
2023/06/19 05:55:38;;;;;;;4.55;3.08;;;21.90;94.20;;;;;;5026180;28;20121;-33
2023/06/19 05:58:04;;;;;;;4.40;3.60;;;21.90;94.40;;;;;;5027411;28;20120;-35
2023/06/19 06:00:33;;;;;;;4.80;3.38;;;21.90;94.50;;;;;;5027077;28;20032;-42
2023/06/19 06:02:59;;;;;;;3.20;2.90;;;21.90;94.60;;;;;;5025873;28;20085;-34
2023/06/19 06:05:26;;;;;;;4.88;3.00;;;21.90;94.70;;;;;;5026640;28;20029;-33
2023/06/19 06:07:52;;;;;;;4.63;4.00;;;22.00;94.70;;;;;;5027409;28;20026;-32
2023/06/19 06:10:18;;;;;;;4.15;3.63;;;22.00;95.00;;;;;;5025937;28;20044;-34
2023/06/19 06:12:44;;;;;;;4.03;3.13;;;22.00;94.90;;;;;;5027146;28;20034;-34
2023/06/19 06:15:11;;;;;;;3.38;3.08;;;22.00;95.00;;;;;;5026413;28;20028;-34
2023/06/19 06:17:36;;;;;;;4.10;3.67;;;22.00;95.00;;;;;;5025977;28;20060;-33
2023/06/19 06:20:06;;;;;;;4.03;3.72;;;22.10;95.10;;;;;;5026226;28;20021;-33
2023/06/19 06:22:31;;;;;;;4.13;3.72;;;22.10;95.10;;;;;;5026827;28;20029;-33
2023/06/19 06:24:57;;;;;;;3.92;3.63;;;22.20;95.00;;;;;;5025300;28;20530;-34
2023/06/19 06:27:22;;;;;;;5.28;3.47;;;22.30;95.00;;;;;;5025932;28;20075;-33
2023/06/19 06:29:48;;;;;;;4.18;3.78;;;22.30;95.00;;;;;;5026267;28;20049;-34
2023/06/19 06:32:14;;;;;;;3.70;3.33;;;22.30;95.00;;;;;;5025099;28;20531;-34
2023/06/19 06:34:42;;;;;;;4.72;4.07;;;22.30;95.00;;;;;;5025877;28;20021;-34
2023/06/19 06:37:08;;;;;;;4.28;3.88;;;22.30;95.00;;;;;;5025692;28;20025;-33
2023/06/19 06:39:33;;;;;;;4.15;3.78;;;22.30;94.90;;;;;;5025441;28;20095;-34
2023/06/19 06:41:59;;;;;;;3.55;3.25;;;22.40;94.80;;;;;;5025903;28;20719;-34
2023/06/19 06:44:24;;;;;;;4.15;3.22;;;22.40;94.70;;;;;;5025606;28;20116;-33
2023/06/19 06:46:50;;;;;;;3.50;3.05;;;22.40;94.70;;;;;;5025887;28;20010;-34
2023/06/19 06:49:16;;;;;;;3.42;3.13;;;22.40;94.60;;;;;;5025841;28;20037;-34
2023/06/19 06:51:42;;;;;;;3.55;2.88;;;22.40;94.50;;;;;;5025650;28;20025;-33
2023/06/19 06:54:14;;;;;;;3.33;3.03;;;22.30;94.40;;;;;;5025470;28;20086;-34
2023/06/19 06:56:39;;;;;;;3.13;2.70;;;22.30;94.30;;;;;;5026337;28;20029;-33
2023/06/19 06:59:05;;;;;;;3.35;3.08;;;22.30;94.30;;;;;;5025246;28;20029;-34
2023/06/19 07:01:33;;;;;;;3.80;3.50;;;22.30;94.30;;;;;;5025857;28;20109;-33
2023/06/19 07:03:59;;;;;;;3.45;2.85;;;22.30;94.20;;;;;;5026706;28;20030;-34
2023/06/19 07:06:27;;;;;;;3.38;2.83;;;22.30;94.20;;;;;;5024817;28;20029;-34
2023/06/19 07:08:53;;;;;;;2.75;2.55;;;22.30;94.10;;;;;;5026300;28;20030;-34
2023/06/19 07:11:19;;;;;;;3.33;3.00;;;22.40;94.10;;;;;;5025396;28;20044;-34
2023/06/19 07:13:52;;;;;;;3.17;2.95;;;22.40;94.00;;;;;;5024580;28;20032;-34
2023/06/19 07:16:17;;;;;;;5.40;2.97;;;22.50;94.00;;;;;;5024905;28;20492;-34
2023/06/19 07:18:46;;;;;;;3.00;2.70;;;22.60;94.00;;;;;;5025597;28;20018;-33
2023/06/19 07:21:17;;;;;;;3.13;2.83;;;22.60;93.90;;;;;;5024292;28;20029;-34
2023/06/19 07:23:49;;;;;;;2.80;2.60;;;22.70;93.70;;;;;;5025761;28;20021;-33
2023/06/19 07:26:15;;;;;;;4.80;3.38;;;22.80;93.40;;;;;;5025465;28;20116;-34
2023/06/19 07:28:41;;;;;;;3.95;3.47;;;22.80;93.20;;;;;;5024256;28;20033;-33
2023/06/19 07:31:07;;;;;;;3.67;3.20;;;22.90;93.00;;;;;;5026025;28;20025;-34
2023/06/19 07:33:33;;;;;;;3.40;3.10;;;22.90;93.00;;;;;;5025458;28;20030;-35
2023/06/19 07:35:59;;;;;;;3.75;3.00;;;23.00;92.90;;;;;;5024619;28;20022;-33
2023/06/19 07:38:24;;;;;;;3.63;3.25;;;23.10;92.80;;;;;;5024665;28;20028;-33
2023/06/19 07:40:50;;;;;;;4.18;3.40;;;23.20;92.60;;;;;;5025156;28;20028;-34
2023/06/19 07:43:17;;;;;;;4.03;3.70;;;23.30;92.40;;;;;;5024083;28;20028;-35
2023/06/19 07:45:42;;;;;;;4.05;3.67;;;23.40;92.30;;;;;;5025348;28;20029;-33
2023/06/19 07:48:08;;;;;;;5.53;4.05;;;23.50;91.90;;;;;;5024155;28;20025;-32
2023/06/19 07:50:34;;;;;;;4.53;4.05;;;23.50;91.90;;;;;;5024942;28;20067;-33
2023/06/19 07:52:59;;;;;;;5.03;4.43;;;23.50;91.80;;;;;;5024705;28;20048;-33
2023/06/19 07:55:25;;;;;;;5.05;4.63;;;23.50;91.70;;;;;;5024266;28;20048;-33
2023/06/19 07:57:52;;;;;;;5.30;4.80;;;23.50;91.60;;;;;;5024823;28;20022;-34
2023/06/19 08:00:18;;;;;;;6.65;5.22;;;23.40;91.50;;;;;;5020654;28;20033;-32
2023/06/19 08:02:43;;;;;;;6.95;5.43;;;23.40;91.50;;;;;;5024283;28;20032;-33
2023/06/19 08:05:10;;;;;;;5.43;4.93;;;23.40;91.50;;;;;;5024602;28;20421;-34
2023/06/19 08:07:36;;;;;;;5.82;5.43;;;23.50;91.40;;;;;;5024913;28;20108;-33
2023/06/19 08:10:03;;;;;;;5.50;5.10;;;23.50;91.30;;;;;;5024165;28;20044;-33
2023/06/19 08:12:29;;;;;;;6.65;5.38;;;23.60;91.20;;;;;;5024616;28;20030;-34
2023/06/19 08:14:55;;;;;;;5.63;4.80;;;23.60;91.00;;;;;;5024504;28;20020;-35
2023/06/19 08:17:21;;;;;;;5.22;4.82;;;23.60;91.00;;;;;;5024007;28;20030;-38
2023/06/19 08:19:47;;;;;;;6.75;6.15;;;23.70;90.80;;;;;;5024607;28;20025;-34
2023/06/19 08:22:12;;;;;;;6.22;5.60;;;23.70;90.60;;;;;;5024118;28;20024;-34
2023/06/19 08:24:39;;;;;;;6.38;5.78;;;23.60;90.50;;;;;;5023575;28;20025;-34
2023/06/19 08:27:05;;;;;;;7.85;6.28;;;23.60;90.80;;;;;;5023912;28;20076;-34
2023/06/19 08:29:31;;;;;;;5.40;4.90;;;23.60;90.40;;;;;;5023923;28;20033;-35
2023/06/19 08:31:56;;;;;;;7.03;6.13;;;23.50;90.50;;;;;;5023943;28;20806;-34
2023/06/19 08:34:22;;;;;;;5.78;5.28;;;23.50;90.30;;;;;;5023718;28;20026;-34
2023/06/19 08:36:49;;;;;;;6.90;6.20;;;23.50;90.30;;;;;;5024935;28;20024;-35
2023/06/19 08:39:14;;;;;;;7.03;6.32;;;23.50;90.20;;;;;;5024446;28;20384;-39
2023/06/19 08:41:41;;;;;;;6.60;5.93;;;23.50;90.10;;;;;;5024468;28;20018;-33
2023/06/19 08:44:07;;;;;;;7.03;5.80;;;23.50;90.10;;;;;;5024233;28;20033;-34
2023/06/19 08:46:41;;;;;;;7.35;6.75;;;23.50;90.10;;;;;;5023537;28;20028;-34
2023/06/19 08:49:11;;;;;;;8.30;7.43;;;23.40;90.00;;;;;;5024551;28;20040;-33
2023/06/19 08:51:37;;;;;;;7.07;6.38;;;23.40;90.10;;;;;;5023399;28;20133;-35
2023/06/19 08:54:05;;;;;;;7.78;6.68;;;23.40;90.30;;;;;;5024107;28;20054;-34
2023/06/19 08:56:34;;;;;;;7.25;6.57;;;23.40;90.30;;;;;;5024162;28;20134;-33
2023/06/19 08:59:17;;;;;;;7.95;7.18;;;23.40;90.30;;;;;;5023535;28;20057;-34
2023/06/19 09:01:53;;;;;;;7.32;6.63;;;23.30;90.40;;;;;;5023952;28;20021;-34
2023/06/19 09:04:22;;;;;;;6.78;6.18;;;23.30;90.50;;;;;;5004260;28;20025;-33
2023/06/19 09:06:51;;;;;;;7.55;6.75;;;23.40;90.50;;;;;;5019296;28;20037;-35
2023/06/19 09:09:20;;;;;;;7.40;6.65;;;23.30;90.50;;;;;;5023406;28;20183;-33
2023/06/19 09:12:10;;;;;;;6.97;6.35;;;23.30;90.60;;;;;;5022738;28;20038;-41
2023/06/19 09:14:45;;;;;;;5.65;5.10;;;23.40;90.60;;;;;;5004250;28;20530;-40
2023/06/19 09:17:13;;;;;;;7.00;6.30;;;23.50;90.60;;;;;;5019050;28;20099;-35
2023/06/19 09:19:51;;;;;;;7.15;6.45;;;23.60;90.60;;;;;;5023569;28;20029;-34
2023/06/19 09:22:21;;;;;;;7.93;5.90;;;23.70;90.50;;;;;;5023825;28;20024;-34
2023/06/19 09:24:47;;;;;;;6.63;5.80;;;23.70;90.40;;;;;;5024596;28;20040;-33
2023/06/19 09:27:18;;;;;;;5.43;4.90;;;23.70;90.40;;;;;;5023363;28;20010;-34
2023/06/19 09:29:49;;;;;;;5.70;5.20;;;23.70;90.30;;;;;;5024342;28;20067;-34
2023/06/19 09:32:19;;;;;;;5.63;5.10;;;23.90;90.20;;;;;;5022879;28;20021;-33
2023/06/19 09:34:44;;;;;;;6.53;5.97;;;24.10;90.10;;;;;;5023950;28;20334;-34
2023/06/19 09:37:10;;;;;;;7.07;6.47;;;24.30;90.00;;;;;;5024320;28;20029;-33
2023/06/19 09:39:38;;;;;;;6.22;5.72;;;24.40;89.50;;;;;;5028653;28;20025;-35
2023/06/19 09:42:07;;;;;;;7.25;6.55;;;24.40;89.10;;;;;;5026621;28;20045;-35
2023/06/19 09:44:44;;;;;;;7.13;4.97;;;24.40;89.00;;;;;;5027502;28;20029;-33
2023/06/19 09:47:25;;;;;;;6.53;5.93;;;24.40;89.30;;;;;;5027094;28;20095;-34
2023/06/19 09:49:55;;;;;;;7.82;6.80;;;24.40;89.30;;;;;;5026699;28;20494;-34
2023/06/19 09:52:22;;;;;;;6.57;5.97;;;24.30;89.20;;;;;;5025867;28;20592;-33
2023/06/19 09:54:50;;;;;;;7.47;6.38;;;24.30;89.40;;;;;;5026546;28;20049;-34
2023/06/19 09:57:16;;;;;;;6.85;6.22;;;24.30;89.60;;;;;;5026762;28;20018;-35
2023/06/19 09:59:43;;;;;;;7.80;7.10;;;24.30;89.00;;;;;;5026978;28;20025;-35
2023/06/19 10:02:10;;;;;;;10.18;7.82;;;24.10;89.00;;;;;;5025915;28;20091;-34
2023/06/19 10:04:46;;;;;;;7.85;7.10;;;24.10;89.20;;;;;;5026842;28;20025;-33
2023/06/19 10:07:35;;;;;;;8.18;6.68;;;24.00;89.20;;;;;;5026435;28;20029;-34
2023/06/19 10:10:12;;;;;;;8.38;7.28;;;24.00;89.20;;;;;;5022462;28;20045;-32
2023/06/19 10:12:45;;;;;;;9.15;8.15;;;24.00;89.20;;;;;;5026416;28;20025;-33
2023/06/19 10:15:13;;;;;;;7.85;7.03;;;24.20;88.60;;;;;;5026284;28;20401;-34
2023/06/19 10:17:47;;;;;;;7.65;6.90;;;24.30;88.40;;;;;;5026419;28;20061;-34
2023/06/19 10:20:39;;;;;;;8.75;7.78;;;24.40;88.40;;;;;;5025632;28;20095;-34
2023/06/19 10:23:09;;;;;;;7.90;6.68;;;24.40;88.10;;;;;;5024522;28;20033;-35
2023/06/19 10:25:37;;;;;;;7.80;6.70;;;24.30;88.30;;;;;;5015376;28;20025;-34
2023/06/19 10:28:07;;;;;;;8.55;7.65;;;24.30;88.50;;;;;;5026723;28;20025;-34
2023/06/19 10:30:34;;;;;;;9.02;7.25;;;24.40;88.50;;;;;;5026240;28;20106;-34
2023/06/19 10:33:04;;;;;;;6.90;6.20;;;24.30;88.70;;;;;;5027326;28;20017;-34
2023/06/19 10:35:38;;;;;;;9.13;8.23;;;24.40;88.90;;;;;;5023761;28;20037;-35
2023/06/19 10:38:15;;;;;;;9.23;8.32;;;24.40;88.50;;;;;;5026269;28;20017;-34
2023/06/19 10:40:41;;;;;;;7.38;6.10;;;24.40;88.10;;;;;;5022878;28;20033;-33
2023/06/19 10:43:07;;;;;;;8.27;7.40;;;24.40;88.50;;;;;;5026098;28;20022;-33
2023/06/19 10:45:32;;;;;;;8.60;7.60;;;24.40;88.10;;;;;;5024663;28;20048;-35
2023/06/19 10:48:02;;;;;;;8.55;7.63;;;24.40;87.80;;;;;;5026111;28;20471;-33
2023/06/19 10:50:28;;;;;;;10.10;9.10;;;24.40;87.90;;;;;;5025297;28;20079;-34
2023/06/19 10:52:57;;;;;;;7.95;7.15;;;24.40;87.70;;;;;;5025950;28;20156;-34
2023/06/19 10:55:23;;;;;;;7.88;7.07;;;24.40;87.70;;;;;;5025272;28;20087;-33
2023/06/19 10:57:49;;;;;;;9.13;7.28;;;24.40;87.50;;;;;;5026061;28;20026;-33
2023/06/19 11:00:28;;;;;;;8.98;8.10;;;24.50;87.60;;;;;;5024580;28;20033;-34
2023/06/19 11:02:55;;;;;;;8.13;7.38;;;24.60;87.40;;;;;;5026334;28;20040;-33
2023/06/19 11:05:25;;;;;;;8.82;8.02;;;24.70;87.20;;;;;;5024008;28;20672;-33
2023/06/19 11:07:55;;;;;;;7.65;6.82;;;24.70;87.00;;;;;;5026613;28;20433;-33
2023/06/19 11:10:28;;;;;;;7.05;6.45;;;24.90;86.70;;;;;;5024517;28;20030;-33
2023/06/19 11:12:56;;;;;;;11.38;9.02;;;25.00;86.20;;;;;;5025516;28;20036;-34
2023/06/19 11:15:33;;;;;;;9.32;8.52;;;25.20;85.70;;;;;;5025066;28;20017;-33
2023/06/19 11:18:00;;;;;;;8.25;7.45;;;25.30;85.10;;;;;;5025915;28;20052;-34
2023/06/19 11:20:26;;;;;;;8.50;7.70;;;25.30;85.00;;;;;;5023915;28;20017;-33
2023/06/19 11:23:00;;;;;;;8.57;7.53;;;25.40;84.90;;;;;;5026076;28;20041;-33
2023/06/19 11:25:39;;;;;;;8.82;7.93;;;25.40;84.80;;;;;;5025121;28;20049;-34
2023/06/19 11:28:10;;;;;;;9.35;8.38;;;25.40;84.60;;;;;;5025255;28;20048;-34
2023/06/19 11:30:36;;;;;;;7.20;6.53;;;25.40;84.30;;;;;;5025130;28;20113;-33
2023/06/19 11:33:23;;;;;;;7.75;7.03;;;25.40;84.40;;;;;;5024882;28;20136;-34
2023/06/19 11:35:52;;;;;;;10.15;9.15;;;25.50;85.10;;;;;;5025564;28;20026;-33
2023/06/19 11:38:19;;;;;;;9.25;8.35;;;25.40;83.60;;;;;;5024979;28;20025;-34
2023/06/19 11:40:52;;;;;;;7.65;6.95;;;25.40;83.70;;;;;;5024847;28;20025;-34
2023/06/19 11:43:30;;;;;;;7.10;6.40;;;25.40;83.70;;;;;;5014143;28;20504;-35
2023/06/19 11:46:10;;;;;;;10.02;6.72;;;25.50;84.00;;;;;;5025112;28;20021;-35
2023/06/19 11:48:38;;;;;;;8.68;7.88;;;25.60;83.70;;;;;;5024909;28;20033;-35
2023/06/19 11:51:04;;;;;;;7.68;6.88;;;25.80;82.90;;;;;;5024790;28;20033;-35
2023/06/19 11:53:30;;;;;;;8.23;7.43;;;25.80;82.30;;;;;;5024704;28;20492;-35
2023/06/19 11:55:56;;;;;;;7.93;7.13;;;25.80;82.40;;;;;;5024447;28;20362;-33
2023/06/19 11:58:22;;;;;;;7.70;6.90;;;25.80;82.40;;;;;;5024478;28;20057;-34
2023/06/19 12:00:48;;;;;;;6.95;6.32;;;25.80;82.10;;;;;;5024863;28;20028;-35
2023/06/19 12:03:19;;;;;;;6.30;5.70;;;25.80;82.00;;;;;;5023794;28;20025;-35
2023/06/19 12:05:45;;;;;;;7.40;6.70;;;25.80;81.80;;;;;;5025388;28;20120;-34
2023/06/19 12:08:11;;;;;;;7.97;6.55;;;25.80;81.20;;;;;;5024399;28;20124;-35
2023/06/19 12:10:36;;;;;;;6.53;5.40;;;25.70;80.00;;;;;;5023728;28;20037;-34
2023/06/19 12:13:02;;;;;;;6.07;5.47;;;25.70;80.40;;;;;;5024791;28;20036;-35
2023/06/19 12:15:27;;;;;;;6.72;6.03;;;25.70;80.60;;;;;;5023555;28;20033;-35
2023/06/19 12:17:53;;;;;;;6.68;6.00;;;25.70;80.90;;;;;;5024595;28;20351;-34
2023/06/19 12:20:21;;;;;;;6.82;5.75;;;25.60;80.60;;;;;;5024027;28;20587;-34
2023/06/19 12:22:46;;;;;;;7.22;6.50;;;25.50;79.80;;;;;;5024062;28;20083;-34
2023/06/19 12:25:12;;;;;;;9.77;8.77;;;25.40;79.70;;;;;;5023380;28;20033;-34
2023/06/19 12:27:41;;;;;;;8.70;7.82;;;25.40;79.20;;;;;;5023637;28;20049;-36
2023/06/19 12:30:07;;;;;;;6.97;5.75;;;25.30;79.50;;;;;;5023386;28;20622;-34
2023/06/19 12:32:33;;;;;;;7.68;6.80;;;25.20;79.80;;;;;;5024003;28;20037;-38
2023/06/19 12:35:02;;;;;;;6.35;5.75;;;25.20;79.60;;;;;;5023192;28;20030;-34
2023/06/19 12:37:31;;;;;;;10.27;7.93;;;25.20;79.90;;;;;;5022181;28;20036;-35
2023/06/19 12:39:57;;;;;;;8.00;7.20;;;25.20;79.80;;;;;;5023583;28;20048;-34
2023/06/19 12:42:22;;;;;;;6.07;5.47;;;25.20;80.00;;;;;;5022978;28;20794;-35
2023/06/19 12:44:48;;;;;;;7.50;5.70;;;25.30;80.10;;;;;;5024308;28;20031;-34
2023/06/19 12:47:16;;;;;;;5.53;4.97;;;25.30;79.30;;;;;;5023998;28;20420;-34
2023/06/19 12:49:42;;;;;;;7.45;6.57;;;25.30;78.40;;;;;;5024035;28;20040;-34
2023/06/19 12:52:08;;;;;;;7.50;5.78;;;25.30;76.70;;;;;;5023225;28;20033;-35